Time;durP1;ratioP1;P1;durP2;ratioP2;P2;SDS_P1;SDS_P2;PMS_P1;PMS_P2;Temp;Humidity;BMP_temperature;BMP_pressure;BME280_temperature;BME280_humidity;BME280_pressure;Samples;Min_cycle;Max_cycle;Signal;HPM_P1;HPM_P2
2022/09/27 00:01:40;;;;;;;4.65;0.70;;;;;;;;;;6191445;23;20880;-81
2022/09/27 00:04:09;;;;;;;6.90;0.80;;;;;;;;;;6190886;23;20494;-81
2022/09/27 00:06:36;;;;;;;6.72;1.13;;;;;;;;;;6190359;23;20036;-81
2022/09/27 00:09:06;;;;;;;6.13;0.68;;;;;;;;;;6192574;23;20025;-83
2022/09/27 00:11:33;;;;;;;9.57;0.95;;;;;;;;;;6191613;23;20031;-82
2022/09/27 00:14:00;;;;;;;3.38;0.98;;;;;;;;;;6191494;23;20048;-81
2022/09/27 00:16:28;;;;;;;6.22;0.70;;;;;;;;;;6193593;23;20574;-81
2022/09/27 00:18:59;;;;;;;5.07;0.80;;;;;;;;;;6192069;23;20029;-80
2022/09/27 00:21:25;;;;;;;6.90;0.80;;;;;;;;;;6192277;23;20025;-81
2022/09/27 00:23:52;;;;;;;6.53;0.77;;;;;;;;;;6192541;23;20064;-82
2022/09/27 00:26:18;;;;;;;5.43;0.98;;;;;;;;;;6190711;23;20837;-81
2022/09/27 00:28:44;;;;;;;4.25;0.70;;;;;;;;;;6190611;23;20026;-80
2022/09/27 00:31:21;;;;;;;7.63;0.77;;;;;;;;;;6192599;23;20014;-80
2022/09/27 00:33:49;;;;;;;4.32;0.70;;;;;;;;;;6192220;23;20022;-81
2022/09/27 00:36:16;;;;;;;4.43;1.00;;;;;;;;;;6191915;23;20026;-80
2022/09/27 00:38:42;;;;;;;6.35;0.80;;;;;;;;;;6191614;23;20021;-80
2022/09/27 00:41:19;;;;;;;7.40;0.88;;;;;;;;;;6194039;23;20026;-80
2022/09/27 00:43:48;;;;;;;6.82;0.75;;;;;;;;;;6192701;23;20025;-81
2022/09/27 00:46:18;;;;;;;1.10;0.40;;;;;;;;;;6192477;23;20025;-80
2022/09/27 00:48:45;;;;;;;4.63;0.70;;;;;;;;;;6191629;23;20017;-81
2022/09/27 00:51:11;;;;;;;6.68;0.90;;;;;;;;;;6192844;23;20032;-80
2022/09/27 00:53:45;;;;;;;7.07;0.70;;;;;;;;;;6193549;23;20006;-81
2022/09/27 00:56:14;;;;;;;5.65;0.75;;;;;;;;;;6193216;23;20021;-81
2022/09/27 00:58:44;;;;;;;6.22;0.80;;;;;;;;;;6194047;23;20036;-80
2022/09/27 01:01:12;;;;;;;3.67;0.53;;;;;;;;;;6192274;23;20021;-80
2022/09/27 01:03:43;;;;;;;1.75;0.60;;;;;;;;;;6194140;23;20098;-81
2022/09/27 01:06:09;;;;;;;3.70;0.60;;;;;;;;;;6192651;23;20014;-80
2022/09/27 01:08:35;;;;;;;3.05;0.60;;;;;;;;;;6193742;23;20347;-80
2022/09/27 01:11:11;;;;;;;4.90;0.82;;;;;;;;;;6193216;23;20084;-81
2022/09/27 01:13:46;;;;;;;2.03;0.40;;;;;;;;;;6192782;23;20037;-80
2022/09/27 01:16:20;;;;;;;3.13;0.60;;;;;;;;;;6193186;23;20033;-80
2022/09/27 01:18:57;;;;;;;5.40;0.70;;;;;;;;;;6193926;23;20386;-80
2022/09/27 01:21:36;;;;;;;5.50;0.63;;;;;;;;;;6193725;23;20025;-80
2022/09/27 01:24:21;;;;;;;3.47;0.60;;;;;;;;;;6193499;23;20481;-80
2022/09/27 01:26:54;;;;;;;5.35;0.73;;;;;;;;;;6194486;23;20850;-81
2022/09/27 01:29:20;;;;;;;6.57;0.77;;;;;;;;;;6197466;23;20024;-81
2022/09/27 01:31:55;;;;;;;4.20;0.88;;;;;;;;;;6197418;23;20021;-80
2022/09/27 01:34:25;;;;;;;5.30;0.80;;;;;;;;;;6197552;23;20706;-80
2022/09/27 01:36:57;;;;;;;5.28;0.75;;;;;;;;;;6199093;23;20024;-80
2022/09/27 01:39:23;;;;;;;3.38;0.70;;;;;;;;;;6200578;23;20021;-80
2022/09/27 01:42:09;;;;;;;5.63;0.70;;;;;;;;;;6199347;23;20013;-80
2022/09/27 01:44:38;;;;;;;3.83;0.85;;;;;;;;;;6198726;23;20032;-80
2022/09/27 01:47:10;;;;;;;6.25;0.82;;;;;;;;;;6198751;23;20013;-80
2022/09/27 01:49:37;;;;;;;2.50;0.60;;;;;;;;;;6200260;23;20025;-80
2022/09/27 01:52:05;;;;;;;3.42;0.60;;;;;;;;;;6200081;23;20021;-80
2022/09/27 01:54:38;;;;;;;5.18;0.90;;;;;;;;;;6198444;23;20481;-80
2022/09/27 01:57:06;;;;;;;4.15;0.60;;;;;;;;;;6200012;23;20017;-80
2022/09/27 01:59:53;;;;;;;6.63;0.80;;;;;;;;;;6199845;23;20017;-80
2022/09/27 02:02:22;;;;;;;6.68;0.90;;;;;;;;;;6199882;23;20006;-80
2022/09/27 02:04:49;;;;;;;4.85;0.73;;;;;;;;;;6200791;23;20026;-80
2022/09/27 02:07:19;;;;;;;5.50;0.82;;;;;;;;;;6200727;23;20033;-80
2022/09/27 02:09:49;;;;;;;6.37;0.63;;;;;;;;;;6200775;23;20045;-80
2022/09/27 02:12:17;;;;;;;8.77;1.20;;;;;;;;;;6198978;23;20013;-80
2022/09/27 02:14:51;;;;;;;3.13;0.82;;;;;;;;;;6197372;23;20037;-80
2022/09/27 02:17:19;;;;;;;6.93;1.02;;;;;;;;;;6198115;23;20025;-80
2022/09/27 02:20:04;;;;;;;4.40;0.90;;;;;;;;;;6200544;23;20017;-80
2022/09/27 02:22:34;;;;;;;5.38;0.98;;;;;;;;;;6199578;23;20040;-80
2022/09/27 02:25:07;;;;;;;5.35;1.05;;;;;;;;;;6199159;23;20072;-80
2022/09/27 02:27:40;;;;;;;6.72;1.00;;;;;;;;;;6202016;23;20040;-80
2022/09/27 02:30:08;;;;;;;3.08;0.68;;;;;;;;;;6197195;23;20037;-80
2022/09/27 02:32:35;;;;;;;5.63;0.90;;;;;;;;;;6198598;23;20021;-81
2022/09/27 02:35:04;;;;;;;3.33;0.57;;;;;;;;;;6199001;23;20040;-80
2022/09/27 02:37:31;;;;;;;6.30;0.63;;;;;;;;;;6196716;23;20018;-80
2022/09/27 02:39:57;;;;;;;7.07;0.90;;;;;;;;;;6193993;23;20024;-80
2022/09/27 02:42:24;;;;;;;3.92;1.20;;;;;;;;;;6194331;23;20035;-80
2022/09/27 02:44:51;;;;;;;3.63;1.05;;;;;;;;;;6191361;23;20021;-80
2022/09/27 02:47:40;;;;;;;6.53;0.80;;;;;;;;;;6193319;23;20045;-80
2022/09/27 02:50:25;;;;;;;4.85;0.57;;;;;;;;;;6192225;23;20800;-80
2022/09/27 02:52:52;;;;;;;5.72;1.25;;;;;;;;;;6193806;23;20028;-80
2022/09/27 02:55:23;;;;;;;4.45;1.35;;;;;;;;;;6193648;23;20033;-80
2022/09/27 02:58:08;;;;;;;6.22;0.70;;;;;;;;;;6193144;23;20018;-80
2022/09/27 03:00:46;;;;;;;9.32;0.80;;;;;;;;;;6192301;23;20013;-80
2022/09/27 03:03:20;;;;;;;6.13;0.77;;;;;;;;;;6193088;23;20026;-80
2022/09/27 03:05:49;;;;;;;3.63;0.75;;;;;;;;;;6192397;23;20021;-80
2022/09/27 03:08:16;;;;;;;6.10;1.02;;;;;;;;;;6191681;23;20032;-80
2022/09/27 03:10:45;;;;;;;8.27;1.33;;;;;;;;;;6194798;23;20034;-79
2022/09/27 03:13:28;;;;;;;5.88;1.20;;;;;;;;;;6179886;23;20028;-80
2022/09/27 03:15:54;;;;;;;5.65;1.25;;;;;;;;;;6193049;23;20024;-80
2022/09/27 03:18:26;;;;;;;9.55;1.00;;;;;;;;;;6194977;23;20085;-80
2022/09/27 03:20:53;;;;;;;8.82;1.40;;;;;;;;;;6195877;23;20045;-80
2022/09/27 03:23:20;;;;;;;6.03;0.90;;;;;;;;;;6192834;23;20037;-80
2022/09/27 03:25:46;;;;;;;5.88;1.20;;;;;;;;;;6193133;23;20013;-80
2022/09/27 03:28:12;;;;;;;5.10;0.90;;;;;;;;;;6191760;23;20013;-80
2022/09/27 03:30:40;;;;;;;9.35;1.60;;;;;;;;;;6190868;23;20033;-80
2022/09/27 03:33:08;;;;;;;8.00;1.13;;;;;;;;;;6192239;23;20028;-80
2022/09/27 03:35:35;;;;;;;7.07;1.05;;;;;;;;;;6192391;23;20052;-80
2022/09/27 03:38:02;;;;;;;5.50;1.00;;;;;;;;;;6194710;23;20486;-80
2022/09/27 03:40:29;;;;;;;5.13;0.90;;;;;;;;;;6193776;23;20024;-80
2022/09/27 03:42:55;;;;;;;5.15;0.77;;;;;;;;;;6192531;23;20013;-80
2022/09/27 03:45:21;;;;;;;7.43;1.02;;;;;;;;;;6190463;23;20026;-80
2022/09/27 03:47:48;;;;;;;8.63;1.10;;;;;;;;;;6193793;23;20025;-80
2022/09/27 03:50:14;;;;;;;6.32;0.80;;;;;;;;;;6193620;23;20026;-80
2022/09/27 03:52:43;;;;;;;13.70;1.30;;;;;;;;;;6193167;23;20022;-80
2022/09/27 03:55:10;;;;;;;4.28;0.90;;;;;;;;;;6192532;23;20029;-81
2022/09/27 03:57:37;;;;;;;4.70;1.02;;;;;;;;;;6195071;23;20049;-82
2022/09/27 04:00:04;;;;;;;8.88;1.38;;;;;;;;;;6192687;23;20025;-80
2022/09/27 04:02:31;;;;;;;7.85;1.13;;;;;;;;;;6193706;23;20034;-80
2022/09/27 04:04:57;;;;;;;8.57;1.20;;;;;;;;;;6191433;23;20022;-80
2022/09/27 04:07:24;;;;;;;10.90;1.10;;;;;;;;;;6139234;23;20026;-80
2022/09/27 04:09:50;;;;;;;8.45;1.50;;;;;;;;;;6164713;23;20034;-80
2022/09/27 04:12:16;;;;;;;7.32;1.17;;;;;;;;;;6137559;23;20461;-80
2022/09/27 04:14:42;;;;;;;8.50;1.60;;;;;;;;;;6135987;23;20022;-80
2022/09/27 04:17:09;;;;;;;11.48;1.25;;;;;;;;;;6138879;23;20033;-80
2022/09/27 04:19:36;;;;;;;8.65;0.98;;;;;;;;;;6165191;23;20029;-80
2022/09/27 04:22:02;;;;;;;4.78;1.38;;;;;;;;;;6165809;23;20026;-80
2022/09/27 04:24:31;;;;;;;11.95;1.33;;;;;;;;;;6140516;23;20018;-80
2022/09/27 04:26:58;;;;;;;4.07;0.95;;;;;;;;;;6138976;23;20030;-80
2022/09/27 04:29:24;;;;;;;4.65;0.93;;;;;;;;;;6137778;23;20360;-80
2022/09/27 04:31:50;;;;;;;11.60;1.90;;;;;;;;;;6136522;23;20026;-80
2022/09/27 04:34:17;;;;;;;10.10;1.30;;;;;;;;;;6137158;23;20030;-80
2022/09/27 04:36:43;;;;;;;9.65;1.25;;;;;;;;;;6136925;23;20041;-80
2022/09/27 04:39:09;;;;;;;6.90;1.00;;;;;;;;;;6164423;23;20778;-80
2022/09/27 04:41:36;;;;;;;8.45;1.27;;;;;;;;;;6138325;23;20018;-80
2022/09/27 04:44:02;;;;;;;7.75;1.08;;;;;;;;;;6139462;23;20026;-80
2022/09/27 04:46:30;;;;;;;10.05;1.63;;;;;;;;;;6139344;23;20028;-81
2022/09/27 04:48:58;;;;;;;8.85;1.10;;;;;;;;;;6138242;23;20049;-81
2022/09/27 04:51:24;;;;;;;7.13;1.00;;;;;;;;;;6165935;23;20024;-81
2022/09/27 04:53:50;;;;;;;5.68;0.98;;;;;;;;;;6139021;23;20022;-81
2022/09/27 04:56:17;;;;;;;11.57;1.17;;;;;;;;;;6138035;23;20117;-81
2022/09/27 04:58:43;;;;;;;6.93;1.10;;;;;;;;;;6140171;23;20132;-81
2022/09/27 05:01:09;;;;;;;7.68;1.20;;;;;;;;;;6166239;23;20014;-81
2022/09/27 05:03:36;;;;;;;7.03;1.15;;;;;;;;;;6139304;23;20085;-79
2022/09/27 05:06:03;;;;;;;6.15;0.98;;;;;;;;;;6165029;23;20025;-80
2022/09/27 05:08:29;;;;;;;5.40;0.80;;;;;;;;;;6139637;23;20325;-79
2022/09/27 05:10:55;;;;;;;8.65;1.20;;;;;;;;;;6165949;23;20094;-79
2022/09/27 05:13:22;;;;;;;4.97;0.95;;;;;;;;;;6165445;23;20030;-80
2022/09/27 05:15:48;;;;;;;11.40;1.08;;;;;;;;;;6128181;23;20030;-81
2022/09/27 05:18:14;;;;;;;3.90;0.73;;;;;;;;;;6129700;23;20078;-80
2022/09/27 05:20:40;;;;;;;2.58;0.80;;;;;;;;;;6130920;23;20030;-80
2022/09/27 05:23:07;;;;;;;3.70;0.95;;;;;;;;;;6156988;23;20038;-81
2022/09/27 05:25:35;;;;;;;7.63;1.00;;;;;;;;;;6130913;23;20026;-80
2022/09/27 05:28:02;;;;;;;7.10;1.10;;;;;;;;;;6130481;23;20014;-81
2022/09/27 05:30:28;;;;;;;4.75;1.42;;;;;;;;;;6155140;23;20038;-80
2022/09/27 05:32:55;;;;;;;11.98;1.60;;;;;;;;;;6131270;23;20085;-79
2022/09/27 05:35:21;;;;;;;8.73;1.27;;;;;;;;;;6130378;23;20034;-82
2022/09/27 05:37:55;;;;;;;7.03;1.20;;;;;;;;;;6129076;23;20037;-80
2022/09/27 05:40:24;;;;;;;9.13;1.60;;;;;;;;;;6128504;23;20026;-80
2022/09/27 05:43:07;;;;;;;7.43;1.60;;;;;;;;;;6132653;23;20026;-81
2022/09/27 05:45:34;;;;;;;6.90;1.38;;;;;;;;;;6156132;23;20022;-81
2022/09/27 05:48:00;;;;;;;11.00;1.60;;;;;;;;;;6130731;23;20033;-80
2022/09/27 05:50:27;;;;;;;7.82;1.70;;;;;;;;;;6129463;23;20037;-81
2022/09/27 05:52:53;;;;;;;8.43;1.58;;;;;;;;;;6130362;23;20036;-80
2022/09/27 05:55:20;;;;;;;7.18;1.58;;;;;;;;;;6151146;23;20392;-81
2022/09/27 05:57:57;;;;;;;9.43;1.98;;;;;;;;;;6128899;23;20022;-82
2022/09/27 06:00:24;;;;;;;8.63;1.58;;;;;;;;;;6129006;23;20030;-81
2022/09/27 06:03:05;;;;;;;5.80;1.90;;;;;;;;;;6130371;23;20487;-82
2022/09/27 06:05:35;;;;;;;9.35;1.95;;;;;;;;;;6141981;23;20078;-82
2022/09/27 06:08:06;;;;;;;6.35;1.58;;;;;;;;;;6186484;23;20032;-81
2022/09/27 06:10:32;;;;;;;7.20;1.50;;;;;;;;;;6185426;23;20025;-81
2022/09/27 06:13:01;;;;;;;11.35;1.33;;;;;;;;;;6185192;23;20029;-81
2022/09/27 06:15:28;;;;;;;8.52;1.40;;;;;;;;;;6185136;23;20041;-82
2022/09/27 06:17:54;;;;;;;9.57;1.65;;;;;;;;;;6186786;23;20021;-81
2022/09/27 06:20:21;;;;;;;7.68;1.52;;;;;;;;;;6185109;23;20033;-82
2022/09/27 06:22:47;;;;;;;8.90;1.85;;;;;;;;;;6187592;23;20033;-81
2022/09/27 06:25:13;;;;;;;6.22;1.52;;;;;;;;;;6187310;23;20013;-82
2022/09/27 06:27:39;;;;;;;9.02;1.70;;;;;;;;;;6185200;23;20030;-83
2022/09/27 06:30:06;;;;;;;6.25;1.42;;;;;;;;;;6186490;23;20018;-83
2022/09/27 06:32:32;;;;;;;5.68;1.20;;;;;;;;;;6186079;23;20021;-82
2022/09/27 06:34:59;;;;;;;8.27;2.10;;;;;;;;;;6184551;23;20964;-81
2022/09/27 06:37:25;;;;;;;4.03;1.00;;;;;;;;;;6183936;23;20036;-81
2022/09/27 06:39:52;;;;;;;5.95;1.08;;;;;;;;;;6184635;23;20521;-81
2022/09/27 06:42:19;;;;;;;5.32;0.88;;;;;;;;;;6184327;23;20036;-81
2022/09/27 06:44:48;;;;;;;6.97;1.10;;;;;;;;;;6184004;23;20021;-81
2022/09/27 06:47:16;;;;;;;2.00;0.63;;;;;;;;;;6185654;23;20021;-82
2022/09/27 06:49:42;;;;;;;5.88;0.80;;;;;;;;;;6185928;23;20521;-81
2022/09/27 06:52:09;;;;;;;4.43;0.90;;;;;;;;;;6185694;23;20026;-81
2022/09/27 06:54:35;;;;;;;5.65;1.00;;;;;;;;;;6186300;23;20094;-82
2022/09/27 06:57:01;;;;;;;6.38;0.85;;;;;;;;;;6184952;23;20932;-81
2022/09/27 07:02:13;;;;;;;3.90;0.90;;;;;;;;;;6186204;23;20029;-82
2022/09/27 07:04:39;;;;;;;10.50;1.17;;;;;;;;;;6185941;23;20021;-81
2022/09/27 07:07:05;;;;;;;6.13;1.30;;;;;;;;;;6160258;23;20660;-81
2022/09/27 07:09:32;;;;;;;8.57;1.08;;;;;;;;;;6156723;23;20081;-81
2022/09/27 07:11:59;;;;;;;11.25;1.27;;;;;;;;;;6130722;23;20034;-81
2022/09/27 07:14:25;;;;;;;5.43;1.20;;;;;;;;;;6156415;23;20034;-82
2022/09/27 07:16:51;;;;;;;5.85;1.30;;;;;;;;;;6157855;23;20030;-82
2022/09/27 07:19:18;;;;;;;9.05;1.00;;;;;;;;;;6132349;23;20112;-82
2022/09/27 07:21:44;;;;;;;4.65;1.10;;;;;;;;;;6133111;23;20844;-80
2022/09/27 07:24:11;;;;;;;6.38;1.30;;;;;;;;;;6131645;23;20021;-81
2022/09/27 07:26:37;;;;;;;5.93;1.23;;;;;;;;;;6135283;23;20026;-81
2022/09/27 07:29:04;;;;;;;4.95;1.00;;;;;;;;;;6161078;23;20045;-82
2022/09/27 07:31:31;;;;;;;8.35;1.08;;;;;;;;;;6136434;23;20383;-80
2022/09/27 07:33:57;;;;;;;8.18;1.00;;;;;;;;;;6134447;23;20026;-81
2022/09/27 07:36:23;;;;;;;5.93;1.20;;;;;;;;;;6158000;23;20033;-81
2022/09/27 07:38:49;;;;;;;3.90;1.17;;;;;;;;;;6131620;23;20030;-81
2022/09/27 07:41:16;;;;;;;8.35;1.27;;;;;;;;;;6154827;23;20479;-81
2022/09/27 07:43:45;;;;;;;6.93;1.00;;;;;;;;;;6129798;23;20076;-82
2022/09/27 07:46:12;;;;;;;6.60;1.20;;;;;;;;;;6156350;23;20029;-81
2022/09/27 07:48:39;;;;;;;6.60;1.10;;;;;;;;;;6130057;23;20505;-81
2022/09/27 07:51:07;;;;;;;6.38;1.48;;;;;;;;;;6129703;23;20029;-80
2022/09/27 07:53:33;;;;;;;7.43;1.30;;;;;;;;;;6156786;23;20029;-80
2022/09/27 07:56:00;;;;;;;5.82;1.20;;;;;;;;;;6129313;23;20037;-79
2022/09/27 07:58:26;;;;;;;6.25;1.45;;;;;;;;;;6157938;23;20483;-81
2022/09/27 08:00:55;;;;;;;7.90;1.88;;;;;;;;;;6134219;23;20439;-81
2022/09/27 08:03:21;;;;;;;7.78;1.27;;;;;;;;;;6134552;23;20452;-81
2022/09/27 08:05:47;;;;;;;5.65;1.58;;;;;;;;;;6146992;23;20037;-81
2022/09/27 08:08:15;;;;;;;6.88;1.15;;;;;;;;;;6184646;23;20033;-80
2022/09/27 08:10:43;;;;;;;10.43;1.73;;;;;;;;;;6185459;23;20466;-83
2022/09/27 08:13:19;;;;;;;4.53;1.30;;;;;;;;;;6189548;23;20020;-82
2022/09/27 08:15:51;;;;;;;7.35;1.30;;;;;;;;;;6186754;23;20032;-80
2022/09/27 08:18:17;;;;;;;9.52;1.20;;;;;;;;;;6183681;23;20442;-83
2022/09/27 08:20:44;;;;;;;4.25;1.10;;;;;;;;;;6184687;23;20065;-81
2022/09/27 08:23:11;;;;;;;7.78;1.05;;;;;;;;;;6184046;23;20033;-80
2022/09/27 08:25:37;;;;;;;6.03;1.13;;;;;;;;;;6186003;23;20010;-81
2022/09/27 08:28:03;;;;;;;5.82;1.20;;;;;;;;;;6185333;23;20610;-79
2022/09/27 08:30:31;;;;;;;7.68;1.50;;;;;;;;;;6184335;23;20030;-81
2022/09/27 08:33:02;;;;;;;5.80;1.40;;;;;;;;;;6183877;23;20026;-80
2022/09/27 08:35:28;;;;;;;5.38;1.30;;;;;;;;;;6185273;23;20029;-79
2022/09/27 08:37:55;;;;;;;4.32;1.30;;;;;;;;;;6187729;23;20028;-80
2022/09/27 08:40:23;;;;;;;5.93;1.67;;;;;;;;;;6187275;23;20028;-80
2022/09/27 08:43:03;;;;;;;8.82;1.85;;;;;;;;;;6184784;23;20021;-79
2022/09/27 08:45:45;;;;;;;5.55;1.88;;;;;;;;;;6184624;23;20029;-81
2022/09/27 08:48:12;;;;;;;5.82;1.60;;;;;;;;;;6184639;23;20046;-81
2022/09/27 08:50:45;;;;;;;5.57;1.40;;;;;;;;;;6183184;23;20032;-81
2022/09/27 08:53:12;;;;;;;6.63;1.30;;;;;;;;;;6186150;23;20032;-81
2022/09/27 08:55:43;;;;;;;8.23;1.20;;;;;;;;;;6185503;23;20029;-81
2022/09/27 08:58:15;;;;;;;7.47;1.05;;;;;;;;;;6187642;23;20072;-80
2022/09/27 09:00:42;;;;;;;6.15;0.90;;;;;;;;;;6185134;23;20026;-81
2022/09/27 09:03:17;;;;;;;4.85;0.93;;;;;;;;;;6188227;23;20033;-80
2022/09/27 09:05:47;;;;;;;3.05;0.75;;;;;;;;;;6192525;23;20470;-82
2022/09/27 09:08:21;;;;;;;3.75;0.65;;;;;;;;;;6190084;23;20108;-81
2022/09/27 09:13:53;;;;;;;2.85;0.65;;;;;;;;;;6187128;23;20051;-82
2022/09/27 09:16:34;;;;;;;4.10;0.80;;;;;;;;;;6184540;23;20037;-82
2022/09/27 09:19:19;;;;;;;4.40;1.00;;;;;;;;;;6185525;23;20018;-81
2022/09/27 09:22:07;;;;;;;6.03;0.80;;;;;;;;;;6185607;23;20025;-81
2022/09/27 09:24:43;;;;;;;3.33;0.68;;;;;;;;;;6187544;23;20030;-82
2022/09/27 09:27:16;;;;;;;4.18;0.63;;;;;;;;;;6186789;23;20481;-80
2022/09/27 09:30:18;;;;;;;4.40;0.90;;;;;;;;;;6186211;23;20419;-81
2022/09/27 09:32:44;;;;;;;3.50;0.70;;;;;;;;;;6096682;23;20037;-82
2022/09/27 09:35:14;;;;;;;7.72;0.93;;;;;;;;;;6161826;23;20026;-83
2022/09/27 09:37:49;;;;;;;4.65;0.80;;;;;;;;;;6187920;23;20045;-82
2022/09/27 09:40:20;;;;;;;4.63;0.60;;;;;;;;;;6187524;23;20057;-81
2022/09/27 09:42:53;;;;;;;3.28;0.88;;;;;;;;;;6187717;23;20017;-82
2022/09/27 09:45:23;;;;;;;3.58;0.57;;;;;;;;;;6188562;23;20030;-82
2022/09/27 09:48:05;;;;;;;6.78;0.82;;;;;;;;;;6186502;23;20517;-82
2022/09/27 09:50:45;;;;;;;6.07;0.70;;;;;;;;;;6184515;23;20021;-81
2022/09/27 09:53:30;;;;;;;5.72;0.70;;;;;;;;;;6185811;23;20030;-82
2022/09/27 09:56:20;;;;;;;3.03;0.70;;;;;;;;;;6186289;23;20482;-81
2022/09/27 09:58:50;;;;;;;4.07;1.02;;;;;;;;;;6144637;23;20022;-80
2022/09/27 10:01:29;;;;;;;2.35;0.63;;;;;;;;;;6185240;23;20025;-81
2022/09/27 10:03:55;;;;;;;6.15;1.00;;;;;;;;;;6187107;23;20025;-82
2022/09/27 10:06:23;;;;;;;4.00;0.82;;;;;;;;;;6184682;23;20025;-80
2022/09/27 10:08:53;;;;;;;4.05;0.70;;;;;;;;;;6185464;23;20029;-81
2022/09/27 10:11:24;;;;;;;3.08;0.75;;;;;;;;;;6186650;23;20045;-85
2022/09/27 10:13:51;;;;;;;6.88;1.23;;;;;;;;;;6185581;23;21374;-82
2022/09/27 10:16:18;;;;;;;5.00;0.68;;;;;;;;;;6184841;23;20100;-79
2022/09/27 10:18:46;;;;;;;2.40;0.70;;;;;;;;;;6184434;23;20033;-83
2022/09/27 10:21:20;;;;;;;4.03;0.70;;;;;;;;;;6184715;23;20025;-82
2022/09/27 10:24:07;;;;;;;5.00;0.70;;;;;;;;;;6187783;23;20051;-83
2022/09/27 10:26:44;;;;;;;6.55;1.02;;;;;;;;;;6184627;23;20025;-82
2022/09/27 10:29:15;;;;;;;4.22;0.90;;;;;;;;;;6182873;23;20032;-82
2022/09/27 10:31:46;;;;;;;2.90;0.70;;;;;;;;;;6181454;23;20037;-83
2022/09/27 10:34:21;;;;;;;2.75;0.52;;;;;;;;;;6184392;23;20506;-82
2022/09/27 10:37:00;;;;;;;3.42;0.60;;;;;;;;;;6186546;23;20029;-82
2022/09/27 10:39:27;;;;;;;3.28;0.70;;;;;;;;;;6185354;23;20037;-82
2022/09/27 10:41:53;;;;;;;3.70;0.60;;;;;;;;;;6184307;23;20465;-83
2022/09/27 10:44:24;;;;;;;2.10;0.60;;;;;;;;;;6185766;23;20037;-82
2022/09/27 10:46:52;;;;;;;2.55;0.60;;;;;;;;;;6184650;23;20053;-83
2022/09/27 10:49:25;;;;;;;3.15;1.02;;;;;;;;;;6183476;23;20033;-83
2022/09/27 10:52:02;;;;;;;3.13;0.80;;;;;;;;;;6183535;23;20105;-83
2022/09/27 10:54:30;;;;;;;6.35;0.65;;;;;;;;;;6184089;23;20040;-83
2022/09/27 10:57:05;;;;;;;2.55;0.63;;;;;;;;;;6184279;23;20029;-83
2022/09/27 10:59:39;;;;;;;2.83;0.60;;;;;;;;;;6185794;23;20060;-83
2022/09/27 11:02:17;;;;;;;3.70;1.00;;;;;;;;;;6186408;23;20025;-83
2022/09/27 11:05:01;;;;;;;4.25;1.02;;;;;;;;;;6185900;23;20096;-82
2022/09/27 11:07:27;;;;;;;2.95;0.68;;;;;;;;;;6185673;23;20043;-83
2022/09/27 11:09:56;;;;;;;2.03;0.60;;;;;;;;;;6185447;23;20994;-83
2022/09/27 11:12:24;;;;;;;5.05;0.80;;;;;;;;;;6186416;23;20025;-82
2022/09/27 11:14:55;;;;;;;4.63;0.80;;;;;;;;;;6183360;23;20041;-82
2022/09/27 11:17:25;;;;;;;3.33;0.50;;;;;;;;;;6186946;23;20032;-82
2022/09/27 11:20:10;;;;;;;5.38;0.75;;;;;;;;;;6187463;23;20475;-82
2022/09/27 11:22:40;;;;;;;5.38;0.70;;;;;;;;;;6184405;23;20018;-81
2022/09/27 11:25:27;;;;;;;5.32;0.82;;;;;;;;;;6181868;23;20029;-82
2022/09/27 11:28:16;;;;;;;5.85;1.05;;;;;;;;;;6184826;23;20100;-82
2022/09/27 11:30:54;;;;;;;2.15;0.80;;;;;;;;;;6187583;23;20017;-83
2022/09/27 11:33:27;;;;;;;3.13;0.75;;;;;;;;;;6187453;23;20029;-82
2022/09/27 11:36:06;;;;;;;2.65;0.70;;;;;;;;;;6185807;23;20363;-82
2022/09/27 11:38:45;;;;;;;3.25;0.90;;;;;;;;;;6183803;23;20062;-81
2022/09/27 11:41:21;;;;;;;2.28;0.60;;;;;;;;;;6185654;23;20045;-82
2022/09/27 11:43:54;;;;;;;5.18;0.60;;;;;;;;;;6184587;23;20117;-82
2022/09/27 11:46:26;;;;;;;5.40;0.77;;;;;;;;;;6183408;23;20033;-82
2022/09/27 11:49:21;;;;;;;8.30;0.75;;;;;;;;;;6185193;23;20030;-81
2022/09/27 11:52:02;;;;;;;5.20;1.13;;;;;;;;;;6187056;23;20108;-83
2022/09/27 11:54:29;;;;;;;3.22;0.60;;;;;;;;;;6185745;23;20025;-79
2022/09/27 11:57:03;;;;;;;3.13;0.50;;;;;;;;;;6190682;23;20018;-82
2022/09/27 11:59:38;;;;;;;2.00;0.47;;;;;;;;;;6189167;23;20796;-84
2022/09/27 12:02:04;;;;;;;1.30;0.40;;;;;;;;;;6188968;23;20100;-82
2022/09/27 12:04:35;;;;;;;2.10;0.50;;;;;;;;;;6187982;23;20034;-80
2022/09/27 12:07:21;;;;;;;1.17;0.30;;;;;;;;;;6190186;23;20037;-82
2022/09/27 12:09:54;;;;;;;1.63;0.50;;;;;;;;;;6189149;23;20016;-83
2022/09/27 12:12:34;;;;;;;3.08;0.65;;;;;;;;;;6195681;23;20032;-83
2022/09/27 12:15:05;;;;;;;1.77;0.52;;;;;;;;;;6192976;23;20034;-82
2022/09/27 12:17:34;;;;;;;2.38;0.60;;;;;;;;;;6189948;23;20029;-81
2022/09/27 12:20:17;;;;;;;2.28;0.52;;;;;;;;;;6190541;23;20031;-82
2022/09/27 12:22:50;;;;;;;3.53;0.68;;;;;;;;;;6191844;23;20032;-83
2022/09/27 12:25:28;;;;;;;3.30;0.70;;;;;;;;;;6189914;23;20033;-83
2022/09/27 12:28:14;;;;;;;2.97;0.50;;;;;;;;;;6189343;23;20029;-84
2022/09/27 12:30:43;;;;;;;5.25;0.90;;;;;;;;;;6186223;23;20101;-83
2022/09/27 12:33:29;;;;;;;5.07;0.75;;;;;;;;;;6189439;23;20030;-83
2022/09/27 12:35:58;;;;;;;4.88;1.00;;;;;;;;;;6193164;23;20025;-84
2022/09/27 12:38:48;;;;;;;3.20;1.00;;;;;;;;;;6193524;23;20024;-84
2022/09/27 12:41:17;;;;;;;3.35;0.80;;;;;;;;;;6192237;23;20056;-83
2022/09/27 12:43:44;;;;;;;2.30;0.65;;;;;;;;;;6191176;23;20021;-84
2022/09/27 12:46:21;;;;;;;4.35;0.80;;;;;;;;;;6193197;23;20033;-83
2022/09/27 12:48:54;;;;;;;4.65;0.68;;;;;;;;;;6187766;23;20025;-85
2022/09/27 12:51:21;;;;;;;5.72;0.93;;;;;;;;;;6186531;23;20037;-83
2022/09/27 12:53:50;;;;;;;3.15;1.10;;;;;;;;;;6188743;23;20258;-83
2022/09/27 12:56:26;;;;;;;2.20;0.70;;;;;;;;;;6188032;23;20018;-83
2022/09/27 12:59:09;;;;;;;3.35;0.90;;;;;;;;;;6189288;23;20029;-85
2022/09/27 13:01:49;;;;;;;2.60;0.63;;;;;;;;;;6189429;23;20025;-83
2022/09/27 13:04:22;;;;;;;3.03;0.80;;;;;;;;;;6189659;23;20029;-83
2022/09/27 13:06:58;;;;;;;2.38;0.60;;;;;;;;;;6186590;23;20030;-83
2022/09/27 13:09:31;;;;;;;3.67;0.70;;;;;;;;;;6187628;23;20603;-83
2022/09/27 13:12:02;;;;;;;3.35;0.70;;;;;;;;;;6190522;23;20046;-84
2022/09/27 13:14:32;;;;;;;1.90;0.60;;;;;;;;;;6191395;23;20459;-83
2022/09/27 13:16:58;;;;;;;5.47;0.80;;;;;;;;;;6193160;23;20021;-83
2022/09/27 13:19:44;;;;;;;4.10;0.70;;;;;;;;;;6193571;23;20831;-83
2022/09/27 13:22:26;;;;;;;3.80;0.65;;;;;;;;;;6192288;23;20029;-83
2022/09/27 13:24:55;;;;;;;2.78;0.65;;;;;;;;;;6193678;23;20032;-85
2022/09/27 13:27:22;;;;;;;5.97;0.80;;;;;;;;;;6193176;23;20058;-83
2022/09/27 13:29:51;;;;;;;2.65;0.65;;;;;;;;;;6193378;23;20028;-84
2022/09/27 13:32:19;;;;;;;3.63;0.80;;;;;;;;;;6193720;23;20073;-83
2022/09/27 13:34:47;;;;;;;3.22;0.80;;;;;;;;;;6190250;23;20034;-84
2022/09/27 13:37:35;;;;;;;4.82;0.90;;;;;;;;;;6189860;23;20026;-84
2022/09/27 13:40:17;;;;;;;4.15;0.82;;;;;;;;;;6191713;23;20014;-82
2022/09/27 13:43:03;;;;;;;3.08;0.80;;;;;;;;;;6192975;23;20017;-84
2022/09/27 13:45:50;;;;;;;3.95;0.90;;;;;;;;;;6174760;23;20025;-81
2022/09/27 13:48:20;;;;;;;4.10;0.77;;;;;;;;;;6191914;23;20017;-81
2022/09/27 13:50:46;;;;;;;3.10;0.80;;;;;;;;;;6193521;23;20033;-81
2022/09/27 13:53:16;;;;;;;3.38;0.95;;;;;;;;;;6197739;23;20014;-80
2022/09/27 13:55:47;;;;;;;6.53;0.95;;;;;;;;;;6194774;23;20044;-79
2022/09/27 13:58:22;;;;;;;4.38;0.93;;;;;;;;;;6183027;23;20033;-81
2022/09/27 14:00:54;;;;;;;4.60;1.17;;;;;;;;;;6181236;23;20088;-81
2022/09/27 14:03:31;;;;;;;3.55;0.70;;;;;;;;;;6183998;23;20039;-81
2022/09/27 14:06:00;;;;;;;6.85;0.93;;;;;;;;;;6182614;23;20029;-80
2022/09/27 14:08:47;;;;;;;1.70;0.50;;;;;;;;;;6182464;23;20061;-80
2022/09/27 14:11:17;;;;;;;2.13;0.70;;;;;;;;;;6182287;23;20037;-79
2022/09/27 14:13:45;;;;;;;2.30;0.63;;;;;;;;;;6184495;23;20055;-80
2022/09/27 14:16:14;;;;;;;4.47;1.15;;;;;;;;;;6182595;23;20502;-81
2022/09/27 14:19:06;;;;;;;1.73;0.70;;;;;;;;;;6183329;23;20855;-81
2022/09/27 14:21:33;;;;;;;3.17;0.73;;;;;;;;;;6180636;23;20466;-81
2022/09/27 14:24:17;;;;;;;3.08;1.13;;;;;;;;;;6184466;23;20029;-81
2022/09/27 14:26:44;;;;;;;4.60;0.82;;;;;;;;;;6185161;23;20032;-81
2022/09/27 14:29:20;;;;;;;1.50;0.50;;;;;;;;;;6184235;23;20056;-81
2022/09/27 14:32:02;;;;;;;4.70;0.90;;;;;;;;;;6183284;23;20490;-79
2022/09/27 14:34:28;;;;;;;2.83;0.80;;;;;;;;;;6186684;23;20029;-80
2022/09/27 14:39:40;;;;;;;2.50;0.70;;;;;;;;;;6187185;23;20068;-80
2022/09/27 14:42:18;;;;;;;3.42;1.02;;;;;;;;;;6185569;23;20029;-80
2022/09/27 14:44:45;;;;;;;1.88;0.60;;;;;;;;;;6182621;23;20033;-80
2022/09/27 14:47:21;;;;;;;3.25;0.70;;;;;;;;;;6181053;23;20029;-80
2022/09/27 14:49:53;;;;;;;2.95;0.60;;;;;;;;;;6181494;23;20038;-80
2022/09/27 14:52:21;;;;;;;2.03;0.95;;;;;;;;;;6185015;23;20025;-80
2022/09/27 14:54:54;;;;;;;5.15;0.80;;;;;;;;;;6183842;23;20029;-80
2022/09/27 14:57:21;;;;;;;3.55;0.80;;;;;;;;;;6184694;23;20030;-80
2022/09/27 14:59:47;;;;;;;5.10;1.10;;;;;;;;;;6184391;23;20061;-80
2022/09/27 15:02:16;;;;;;;12.27;4.28;;;;;;;;;;6184803;23;20026;-80
2022/09/27 15:04:45;;;;;;;14.65;7.22;;;;;;;;;;6183934;23;20033;-80
2022/09/27 15:07:15;;;;;;;16.88;10.93;;;;;;;;;;6192632;23;20009;-79
2022/09/27 15:09:44;;;;;;;10.80;6.93;;;;;;;;;;6192483;23;20020;-82
2022/09/27 15:12:25;;;;;;;3.92;1.70;;;;;;;;;;6195692;23;20033;-82
2022/09/27 15:14:57;;;;;;;5.38;1.77;;;;;;;;;;6198772;23;20021;-82